Shamong, New Jersey
Current Conditions -  °F | °C
As of 10:54 AM on Saturday 25 Oct 2014 (Local Time) from KVAY Reporting Station
Clear Clear  
Wind Chill: 61°   Ceiling: Unl
Heat Index: 61°   Visibility: 10mi
Dew Point: 39°   Wind: 7mph
Humidity: 44%   Direction: NA
Pressure: 29.89"   Gusts: 17mph
Location:  39.7955°N, 74.6301°W
Report Text: KVAY 251454Z AUTO VRB06G15KT 10SM CLR 16/04 A2989 RMK AO2 SLP120 T01610039 58008
Loading
Personal Weather Stations






























Interactive Weather Map
Tropical Storm Tracking
New forecast layout! Learn more

10-Day Weather Forecast

Advertisements
Track Severe Weather on mobile